Weather Forecast for Dubai Airport  
Friday, October 20, 2017 (19:27 UTC)
Dubai International Airport
Last Updated: 20-10-2017 (19:25Z)
Wind Dir/Speed: NW at 3 KT
Temperature: 31.5 °C
Rel. Humidity: 51 %
Pressure: 1011.1 hPa
Visibility: 10000 m
  • METAR OMDB 201900Z VRB02KT CAVOK 32/21 Q1011 NOSIG
NEXT 5 DAY FORECAST (OMDB): as on 20-October-2017
FRIDAY
HIGH:
37 °C
LOW:
28 °C
SATURDAY
HIGH:
35 °C
LOW:
27 °C
SUNDAY
HIGH:
35 °C
LOW:
26 °C
MONDAY
HIGH:
36 °C
LOW:
27 °C
TUESDAY
HIGH:
34 °C
LOW:
26 °C

DUBAI AIRPORT WEATHER FORECAST FOR 30 HOUR:
DUBAI TAF:
TAF OMDB 201619Z 2018/2200 33010KT 8000 NSC 
 BECMG 2018/2020 17005KT 
 BECMG 2107/2109 32012KT 
 BECMG 2116/2118 15005KT=
VALID FROM:
2017-10-20 18:00Z
VALID TILL:
2017-10-22 00:00Z
SURFACE WIND:
NW'LY 10KT

BECOMING S'LY 05KT FROM 1800Z-2000Z TODAY

BECOMING NW'LY 12KT FROM 0700Z-0900Z SATURDAY

BECOMING SE'LY 05KT FROM 1600Z-1800Z SATURDAY.
VISIBILITY:
07-10 KM.
WEATHER:
FINE.
CLOUD:
NIL SIGNIFICANT.
TEMPERATURE:
MIN TEMPERATURE 27°C AROUND 0230Z SATURDAY

MAX TEMPERATURE 35°C AROUND 0730Z SATURDAY.
HUMIDITY:
MAX HUMIDITY 70% AROUND 0230Z SATURDAY

MIN HUMIDITY 30% AROUND 0730Z SATURDAY.
WIND SHEAR:
NIL SIGNIFICANT.
TEMPERATURE INVERSION:
NIL SIGNIFICANT.
COMMENTS:
NIL.